createdAt,value
2023-08-07T00:00:12.063Z,99076.33
2023-08-07T00:03:03.698Z,99076.80
2023-08-07T00:05:35.839Z,99080.81
2023-08-07T00:08:07.777Z,99079.46
2023-08-07T00:10:39.248Z,99085.42
2023-08-07T00:13:11.095Z,99081.36
2023-08-07T00:15:42.712Z,99080.96
2023-08-07T00:18:14.230Z,99082.35
2023-08-07T00:20:45.817Z,99089.29
2023-08-07T00:23:17.396Z,99084.10
2023-08-07T00:25:49.096Z,99090.96
2023-08-07T00:28:20.625Z,99083.52
2023-08-07T00:30:52.107Z,99088.79
2023-08-07T00:33:23.989Z,99091.01
2023-08-07T00:35:55.525Z,99089.13
2023-08-07T00:38:27.072Z,99091.41
2023-08-07T00:40:58.552Z,99087.36
2023-08-07T00:43:30.135Z,99086.83
2023-08-07T00:46:01.729Z,99089.77
2023-08-07T00:48:34.835Z,99094.89
2023-08-07T00:51:09.073Z,99093.63
2023-08-07T00:53:42.455Z,99092.06
2023-08-07T00:56:14.190Z,99095.48
2023-08-07T00:58:45.957Z,99096.14
2023-08-07T01:01:17.613Z,99098.02
2023-08-07T01:03:49.143Z,99095.93
2023-08-07T01:06:20.666Z,99101.25
2023-08-07T01:08:52.635Z,99102.49
2023-08-07T01:11:36.943Z,99101.39
2023-08-07T01:14:15.852Z,99097.91
2023-08-07T01:16:50.780Z,99098.69
2023-08-07T01:19:27.266Z,99097.84
2023-08-07T01:22:10.074Z,99100.28
2023-08-07T01:24:44.056Z,99098.04
2023-08-07T01:27:30.470Z,99100.14
2023-08-07T01:30:20.731Z,99100.89
2023-08-07T01:33:01.041Z,99100.18
2023-08-07T01:35:36.966Z,99104.62
2023-08-07T01:38:09.335Z,99108.77
2023-08-07T01:40:41.827Z,99104.02
2023-08-07T01:43:13.360Z,99104.73
2023-08-07T01:45:45.033Z,99104.41
2023-08-07T01:48:16.704Z,99106.04
2023-08-07T01:50:48.820Z,99108.09
2023-08-07T01:53:20.298Z,99111.33
2023-08-07T01:55:51.811Z,99109.96
2023-08-07T01:58:23.572Z,99113.17
2023-08-07T02:00:55.084Z,99111.53
2023-08-07T02:03:26.745Z,99110.37
2023-08-07T02:05:58.493Z,99109.50
2023-08-07T02:08:29.988Z,99109.51
2023-08-07T02:11:02.524Z,99113.88
2023-08-07T02:13:34.066Z,99113.61
2023-08-07T02:16:05.742Z,99115.63
2023-08-07T02:18:37.857Z,99117.40
2023-08-07T02:21:09.402Z,99111.75
2023-08-07T02:23:41.478Z,99117.46
2023-08-07T02:26:13.545Z,99120.45
2023-08-07T02:28:45.088Z,99119.54
2023-08-07T02:31:16.802Z,99119.09
2023-08-07T02:33:48.333Z,99117.84
2023-08-07T02:36:20.296Z,99117.30
2023-08-07T02:38:51.743Z,99120.60
2023-08-07T02:41:23.269Z,99118.09
2023-08-07T02:43:54.764Z,99116.63
2023-08-07T02:46:26.305Z,99123.70
2023-08-07T02:48:57.860Z,99118.14
2023-08-07T02:51:29.498Z,99121.23
2023-08-07T02:54:01.030Z,99118.55
2023-08-07T02:56:34.098Z,99120.58
2023-08-07T02:59:06.525Z,99117.37
2023-08-07T03:01:38.084Z,99120.54
2023-08-07T03:04:09.812Z,99117.50
2023-08-07T03:06:41.337Z,99119.98
2023-08-07T03:09:12.873Z,99119.26
2023-08-07T03:11:44.361Z,99120.98
2023-08-07T03:14:15.861Z,99123.67
2023-08-07T03:16:48.467Z,99124.56
2023-08-07T03:19:22.632Z,99123.48
2023-08-07T03:21:54.251Z,99125.30
2023-08-07T03:24:25.759Z,99120.34
2023-08-07T03:26:57.379Z,99115.11
2023-08-07T03:29:29.276Z,99115.54
2023-08-07T03:32:00.807Z,99117.45
2023-08-07T03:34:32.362Z,99122.90
2023-08-07T03:37:04.255Z,99123.73
2023-08-07T03:39:35.813Z,99126.42
2023-08-07T03:42:08.583Z,99127.88
2023-08-07T03:44:38.539Z,99123.45
2023-08-07T03:47:10.233Z,99127.41
2023-08-07T03:49:41.769Z,99131.45
2023-08-07T03:52:13.266Z,99129.09
2023-08-07T03:54:44.723Z,99130.01
2023-08-07T03:57:16.254Z,99138.22
2023-08-07T03:59:47.925Z,99137.34
2023-08-07T04:02:19.449Z,99143.33
2023-08-07T04:04:51.050Z,99147.08
2023-08-07T04:07:22.527Z,99150.40
2023-08-07T04:09:54.332Z,99147.12
2023-08-07T04:12:25.981Z,99148.57
2023-08-07T04:14:57.693Z,99145.15
2023-08-07T04:17:29.262Z,99146.13
2023-08-07T04:20:00.883Z,99146.60
2023-08-07T04:22:32.632Z,99145.50
2023-08-07T04:25:04.688Z,99144.01
2023-08-07T04:27:36.156Z,99145.48
2023-08-07T04:30:09.629Z,99150.23
2023-08-07T04:32:41.835Z,99150.48
2023-08-07T04:35:13.613Z,99152.70
2023-08-07T04:37:45.069Z,99154.20
2023-08-07T04:40:16.911Z,99155.96
2023-08-07T04:42:48.453Z,99160.90
2023-08-07T04:45:20.051Z,99161.85
2023-08-07T04:47:51.946Z,99163.17
2023-08-07T04:50:24.323Z,99168.76
2023-08-07T04:52:55.813Z,99167.98
2023-08-07T04:55:27.324Z,99171.80
2023-08-07T04:57:59.090Z,99176.45
2023-08-07T05:00:31.153Z,99174.13
2023-08-07T05:03:03.407Z,99179.16
2023-08-07T05:05:35.253Z,99182.63
2023-08-07T05:08:07.543Z,99183.64
2023-08-07T05:10:38.979Z,99183.39
2023-08-07T05:13:10.461Z,99186.27
2023-08-07T05:15:41.941Z,99185.85
2023-08-07T05:18:13.355Z,99186.33
2023-08-07T05:20:45.082Z,99187.26
2023-08-07T05:23:16.560Z,99191.04
2023-08-07T05:25:50.138Z,99191.34
2023-08-07T05:28:21.645Z,99193.32
2023-08-07T05:30:53.176Z,99198.23
2023-08-07T05:33:24.827Z,99202.38
2023-08-07T05:35:56.688Z,99208.16
2023-08-07T05:38:28.149Z,99210.63
2023-08-07T05:40:59.704Z,99213.22
2023-08-07T05:43:31.236Z,99210.55
2023-08-07T05:46:02.840Z,99213.77
2023-08-07T05:48:34.433Z,99212.63
2023-08-07T05:51:08.129Z,99210.88
2023-08-07T05:53:39.847Z,99213.70
2023-08-07T05:56:11.373Z,99216.88
2023-08-07T05:58:43.000Z,99216.02
2023-08-07T06:01:15.864Z,99223.50
2023-08-07T06:03:47.658Z,99222.57
2023-08-07T06:06:20.247Z,99225.76
2023-08-07T06:08:51.869Z,99226.27
2023-08-07T06:11:23.420Z,99231.88
2023-08-07T06:13:54.915Z,99229.27
2023-08-07T06:16:26.564Z,99234.91
2023-08-07T06:18:58.244Z,99238.66
2023-08-07T06:21:30.458Z,99241.30
2023-08-07T06:24:02.018Z,99243.16
2023-08-07T06:26:33.603Z,99242.53
2023-08-07T06:29:05.341Z,99247.61
2023-08-07T06:31:36.990Z,99246.51
2023-08-07T06:34:08.541Z,99251.73
2023-08-07T06:36:40.407Z,99251.58
2023-08-07T06:39:11.857Z,99249.48
2023-08-07T06:41:43.342Z,99253.34
2023-08-07T06:44:14.786Z,99254.54
2023-08-07T06:46:46.352Z,99256.80
2023-08-07T06:49:17.794Z,99251.85
2023-08-07T06:51:49.301Z,99260.69
2023-08-07T06:54:20.830Z,99266.77
2023-08-07T06:56:52.384Z,99265.20
2023-08-07T06:59:25.035Z,99266.17
2023-08-07T07:01:55.506Z,99265.42
2023-08-07T07:04:27.471Z,99267.70
2023-08-07T07:06:58.977Z,99271.36
2023-08-07T07:09:30.774Z,99273.59
2023-08-07T07:12:02.251Z,99284.25
2023-08-07T07:14:34.727Z,99282.40
2023-08-07T07:17:05.175Z,99286.96
2023-08-07T07:19:36.666Z,99294.26
2023-08-07T07:22:08.955Z,99291.21
2023-08-07T07:24:40.737Z,99293.42
2023-08-07T07:27:12.280Z,99297.06
2023-08-07T07:29:43.777Z,99299.59
2023-08-07T07:32:15.323Z,99298.94
2023-08-07T07:34:47.035Z,99302.35
2023-08-07T07:37:18.443Z,99304.75
2023-08-07T07:39:49.850Z,99306.03
2023-08-07T07:42:21.521Z,99307.46
2023-08-07T07:44:53.057Z,99309.73
2023-08-07T07:47:24.481Z,99310.76
2023-08-07T07:50:09.589Z,99312.17
2023-08-07T07:52:41.407Z,99317.62
2023-08-07T07:55:14.981Z,99321.36
2023-08-07T07:57:46.489Z,99321.73
2023-08-07T08:00:20.186Z,99319.11
2023-08-07T08:02:51.958Z,99319.58
2023-08-07T08:05:23.444Z,99320.86
2023-08-07T08:07:55.214Z,99322.76
2023-08-07T08:10:27.135Z,99324.96
2023-08-07T08:12:59.508Z,99329.51
2023-08-07T08:15:31.229Z,99331.30
2023-08-07T08:18:03.205Z,99335.55
2023-08-07T08:20:34.907Z,99341.70
2023-08-07T08:23:06.730Z,99343.44
2023-08-07T08:25:38.231Z,99340.80
2023-08-07T08:28:09.885Z,99341.71
2023-08-07T08:30:41.420Z,99347.71
2023-08-07T08:33:15.615Z,99347.17
2023-08-07T08:35:47.522Z,99349.66
2023-08-07T08:38:21.704Z,99355.56
2023-08-07T08:40:55.284Z,99363.41
2023-08-07T08:43:28.911Z,99366.45
2023-08-07T08:46:01.526Z,99371.23
2023-08-07T08:48:36.760Z,99372.36
2023-08-07T08:51:10.440Z,99373.23
2023-08-07T08:53:42.866Z,99379.23
2023-08-07T08:56:15.137Z,99376.17
2023-08-07T08:58:46.795Z,99378.52
2023-08-07T09:01:19.304Z,99378.84
2023-08-07T09:03:53.369Z,99385.13
2023-08-07T09:06:25.796Z,99384.06
2023-08-07T09:09:00.213Z,99386.77
2023-08-07T09:11:34.247Z,99389.39
2023-08-07T09:14:06.252Z,99396.00
2023-08-07T09:16:38.220Z,99396.56
2023-08-07T09:19:10.141Z,99395.65
2023-08-07T09:21:41.710Z,99395.98
2023-08-07T09:24:13.645Z,99401.47
2023-08-07T09:26:46.618Z,99403.48
2023-08-07T09:29:18.261Z,99406.95
2023-08-07T09:31:49.904Z,99403.48
2023-08-07T09:34:24.304Z,99401.82
2023-08-07T09:36:56.050Z,99408.41
2023-08-07T09:39:30.928Z,99413.78
2023-08-07T09:42:02.822Z,99411.06
2023-08-07T09:44:40.169Z,99410.41
2023-08-07T09:47:20.651Z,99412.96
2023-08-07T09:49:57.933Z,99409.55
2023-08-07T09:52:29.483Z,99418.45
2023-08-07T09:55:01.347Z,99422.86
2023-08-07T09:57:34.046Z,99428.55
2023-08-07T10:00:13.075Z,99427.89
2023-08-07T10:02:45.094Z,99431.70
2023-08-07T10:05:17.842Z,99434.48
2023-08-07T10:07:48.104Z,99439.61
2023-08-07T10:10:20.560Z,99438.06
2023-08-07T10:12:52.443Z,99435.21
2023-08-07T10:15:25.444Z,99438.98
2023-08-07T10:17:57.147Z,99439.21
2023-08-07T10:20:30.712Z,99444.70
2023-08-07T10:23:07.807Z,99443.23
2023-08-07T10:25:41.720Z,99445.34
2023-08-07T10:28:18.638Z,99443.98
2023-08-07T10:30:50.853Z,99450.02
2023-08-07T10:33:23.038Z,99450.55
2023-08-07T10:35:55.679Z,99450.85
2023-08-07T10:38:25.742Z,99452.05
2023-08-07T10:41:07.791Z,99453.99
2023-08-07T10:43:43.089Z,99454.17
2023-08-07T10:46:24.391Z,99462.08
2023-08-07T10:48:59.435Z,99470.52
2023-08-07T10:51:33.440Z,99470.00
2023-08-07T10:54:05.875Z,99469.23
2023-08-07T10:56:39.050Z,99474.36
2023-08-07T10:59:14.598Z,99473.79
2023-08-07T11:01:52.535Z,99480.10
2023-08-07T11:04:27.163Z,99479.56
2023-08-07T11:06:58.867Z,99482.66
2023-08-07T11:09:30.667Z,99480.56
2023-08-07T11:12:02.471Z,99481.55
2023-08-07T11:14:35.105Z,99482.14
2023-08-07T11:17:07.911Z,99484.86
2023-08-07T11:19:40.471Z,99485.81
2023-08-07T11:22:11.178Z,99495.95
2023-08-07T11:24:41.208Z,99501.44
2023-08-07T11:27:12.705Z,99500.49
2023-08-07T11:29:47.257Z,99508.08
2023-08-07T11:32:20.974Z,99505.80
2023-08-07T11:34:53.513Z,99509.95
2023-08-07T11:37:23.526Z,99510.30
2023-08-07T11:40:01.381Z,99506.36
2023-08-07T11:42:32.934Z,99502.04
2023-08-07T11:45:05.883Z,99500.35
2023-08-07T11:47:37.929Z,99496.39
2023-08-07T11:50:11.870Z,99490.65
2023-08-07T11:52:43.379Z,99490.27
2023-08-07T11:55:17.620Z,99495.52
2023-08-07T11:57:50.329Z,99488.86
2023-08-07T12:00:22.132Z,99506.46
2023-08-07T12:02:53.781Z,99509.72
2023-08-07T12:05:25.725Z,99506.34
2023-08-07T12:07:57.292Z,99504.65
2023-08-07T12:10:29.072Z,99515.98
2023-08-07T12:13:05.991Z,99527.96
2023-08-07T12:15:39.585Z,99537.98
2023-08-07T12:18:14.347Z,99553.28
2023-08-07T12:20:46.261Z,99549.98
2023-08-07T12:23:19.885Z,99551.64
2023-08-07T12:25:51.421Z,99554.30
2023-08-07T12:28:23.961Z,99554.54
2023-08-07T12:30:54.169Z,99553.83
2023-08-07T12:33:26.071Z,99560.11
2023-08-07T12:35:58.629Z,99562.09
2023-08-07T12:38:30.700Z,99562.08
2023-08-07T12:41:04.442Z,99566.79
2023-08-07T12:43:36.038Z,99560.04
2023-08-07T12:48:42.046Z,99558.02
2023-08-07T12:51:13.800Z,99558.52
2023-08-07T12:53:46.633Z,99561.09
2023-08-07T12:56:18.270Z,99559.70
2023-08-07T12:58:51.436Z,99558.81
2023-08-07T13:01:23.022Z,99561.04
2023-08-07T13:03:54.927Z,99558.76
2023-08-07T13:06:26.580Z,99553.38
2023-08-07T13:08:58.270Z,99555.78
2023-08-07T13:11:29.969Z,99551.04
2023-08-07T13:14:01.690Z,99552.95
2023-08-07T13:16:33.388Z,99565.80
2023-08-07T13:19:05.730Z,99568.68
2023-08-07T13:21:37.686Z,99578.89
2023-08-07T13:24:09.768Z,99585.91
2023-08-07T13:26:45.974Z,99601.19
2023-08-07T13:29:17.766Z,99619.34
2023-08-07T13:31:49.589Z,99622.42
2023-08-07T13:34:21.153Z,99615.34
2023-08-07T13:36:53.706Z,99611.61
2023-08-07T13:39:25.222Z,99616.77
2023-08-07T13:41:57.778Z,99613.61
2023-08-07T13:44:29.567Z,99615.14
2023-08-07T13:47:01.097Z,99604.43
2023-08-07T13:49:32.541Z,99599.71
2023-08-07T13:52:04.231Z,99600.23
2023-08-07T13:54:35.901Z,99596.67
2023-08-07T13:57:08.839Z,99603.80
2023-08-07T13:59:41.215Z,99609.52
2023-08-07T14:02:13.167Z,99609.97
2023-08-07T14:04:46.452Z,99608.23
2023-08-07T14:07:18.527Z,99609.52
2023-08-07T14:09:50.223Z,99612.49
2023-08-07T14:12:21.730Z,99617.51
2023-08-07T14:14:53.313Z,99613.27
2023-08-07T14:17:24.894Z,99618.02
2023-08-07T14:19:56.461Z,99635.06
2023-08-07T14:22:28.034Z,99662.70
2023-08-07T14:24:59.632Z,99667.09
2023-08-07T14:27:31.143Z,99655.41
2023-08-07T14:30:02.753Z,99653.14
2023-08-07T14:32:34.271Z,99655.60
2023-08-07T14:35:07.156Z,99647.49
2023-08-07T14:37:38.688Z,99646.54
2023-08-07T14:40:12.199Z,99644.83
2023-08-07T14:42:43.915Z,99646.41
2023-08-07T14:45:16.813Z,99640.80
2023-08-07T14:47:48.395Z,99640.40
2023-08-07T14:50:20.389Z,99640.09
2023-08-07T14:52:51.919Z,99646.19
2023-08-07T14:55:23.437Z,99646.48
2023-08-07T14:57:55.196Z,99645.52
2023-08-07T15:00:26.788Z,99645.86
2023-08-07T15:03:00.180Z,99642.39
2023-08-07T15:05:32.069Z,99640.21
2023-08-07T15:08:04.035Z,99635.80
2023-08-07T15:10:36.552Z,99636.50
2023-08-07T15:13:06.651Z,99632.52
2023-08-07T15:15:38.435Z,99632.80
2023-08-07T15:18:10.006Z,99629.16
2023-08-07T15:20:41.717Z,99630.60
2023-08-07T15:23:13.378Z,99630.77
2023-08-07T15:25:45.538Z,99628.98
2023-08-07T15:28:17.256Z,99634.98
2023-08-07T15:30:53.741Z,99637.92
2023-08-07T15:33:25.503Z,99634.35
2023-08-07T15:35:58.452Z,99638.80
2023-08-07T15:38:30.350Z,99638.21
2023-08-07T15:41:01.887Z,99636.38
2023-08-07T15:43:33.368Z,99637.63
2023-08-07T15:46:05.012Z,99640.44
2023-08-07T15:48:36.642Z,99636.02
2023-08-07T15:51:08.351Z,99638.88
2023-08-07T15:53:39.919Z,99640.27
2023-08-07T15:56:11.446Z,99641.62
2023-08-07T15:58:43.120Z,99649.23
2023-08-07T16:01:14.761Z,99642.58
2023-08-07T16:03:46.545Z,99635.10
2023-08-07T16:06:19.783Z,99635.48
2023-08-07T16:08:51.277Z,99628.83
2023-08-07T16:11:22.965Z,99626.98
2023-08-07T16:13:54.662Z,99629.48
2023-08-07T16:16:26.514Z,99625.27
2023-08-07T16:18:58.006Z,99628.20
2023-08-07T16:21:29.594Z,99630.70
2023-08-07T16:24:01.122Z,99631.83
2023-08-07T16:26:32.728Z,99633.66
2023-08-07T16:29:04.385Z,99633.73
2023-08-07T16:31:36.004Z,99635.79
2023-08-07T16:34:07.527Z,99636.15
2023-08-07T16:36:39.067Z,99638.70
2023-08-07T16:39:10.719Z,99639.88
2023-08-07T16:41:46.586Z,99635.61
2023-08-07T16:44:18.615Z,99632.95
2023-08-07T16:46:50.474Z,99635.09
2023-08-07T16:49:21.941Z,99633.39
2023-08-07T16:51:59.122Z,99634.01
2023-08-07T16:54:30.929Z,99633.14
2023-08-07T16:57:03.810Z,99639.23
2023-08-07T16:59:35.290Z,99638.34
2023-08-07T17:02:08.501Z,99639.65
2023-08-07T17:04:40.604Z,99643.23
2023-08-07T17:07:12.268Z,99635.48
2023-08-07T17:09:43.744Z,99638.52
2023-08-07T17:12:15.209Z,99643.46
2023-08-07T17:14:46.805Z,99644.27
2023-08-07T17:17:18.374Z,99646.05
2023-08-07T17:19:50.119Z,99648.95
2023-08-07T17:22:21.748Z,99652.49
2023-08-07T17:24:53.481Z,99654.11
2023-08-07T17:27:25.211Z,99657.93
2023-08-07T17:29:56.787Z,99660.42
2023-08-07T17:32:28.288Z,99664.08
2023-08-07T17:35:01.547Z,99663.84
2023-08-07T17:37:33.090Z,99666.02
2023-08-07T17:40:06.141Z,99668.28
2023-08-07T17:42:37.691Z,99662.61
2023-08-07T17:45:11.700Z,99665.91
2023-08-07T17:47:44.344Z,99665.73
2023-08-07T17:50:16.464Z,99665.89
2023-08-07T17:52:48.080Z,99661.10
2023-08-07T17:55:19.865Z,99665.91
2023-08-07T17:57:51.425Z,99664.48
2023-08-07T18:00:23.714Z,99665.52
2023-08-07T18:02:55.644Z,99667.69
2023-08-07T18:05:27.419Z,99666.73
2023-08-07T18:07:59.557Z,99673.73
2023-08-07T18:10:32.132Z,99673.47
2023-08-07T18:13:02.217Z,99673.87
2023-08-07T18:15:33.874Z,99678.67
2023-08-07T18:18:05.762Z,99680.23
2023-08-07T18:20:37.566Z,99682.31
2023-08-07T18:23:09.115Z,99694.19
2023-08-07T18:25:40.702Z,99689.57
2023-08-07T18:28:12.369Z,99690.95
2023-08-07T18:30:44.091Z,99694.65
2023-08-07T18:33:15.932Z,99691.29
2023-08-07T18:35:48.931Z,99691.69
2023-08-07T18:38:20.885Z,99693.17
2023-08-07T18:40:52.435Z,99692.41
2023-08-07T18:43:23.988Z,99689.72
2023-08-07T18:45:55.485Z,99689.73
2023-08-07T18:48:27.054Z,99693.66
2023-08-07T18:50:58.917Z,99697.00
2023-08-07T18:53:30.394Z,99693.23
2023-08-07T18:56:01.860Z,99701.47
2023-08-07T18:58:35.130Z,99702.48
2023-08-07T19:01:06.764Z,99705.98
2023-08-07T19:03:38.473Z,99711.91
2023-08-07T19:06:11.281Z,99717.73
2023-08-07T19:08:42.214Z,99723.45
2023-08-07T19:11:13.857Z,99721.02
2023-08-07T19:13:46.017Z,99722.39
2023-08-07T19:16:18.022Z,99720.84
2023-08-07T19:18:49.723Z,99719.48
2023-08-07T19:21:34.840Z,99720.80
2023-08-07T19:24:12.613Z,99717.05
2023-08-07T19:26:45.107Z,99719.61
2023-08-07T19:29:16.689Z,99719.34
2023-08-07T19:31:48.229Z,99721.48
2023-08-07T19:34:19.986Z,99724.41
2023-08-07T19:37:02.133Z,99725.50
2023-08-07T19:39:34.783Z,99720.30
2023-08-07T19:42:07.275Z,99716.71
2023-08-07T19:44:39.066Z,99713.70
2023-08-07T19:47:14.223Z,99714.54
2023-08-07T19:49:54.043Z,99715.40
2023-08-07T19:52:26.104Z,99717.54
2023-08-07T19:54:57.746Z,99720.64
2023-08-07T19:57:29.310Z,99719.67
2023-08-07T20:00:01.912Z,99720.96
2023-08-07T20:02:34.583Z,99719.80
2023-08-07T20:05:05.388Z,99715.45
2023-08-07T20:07:35.348Z,99714.65
2023-08-07T20:10:10.901Z,99715.73
2023-08-07T20:12:43.470Z,99713.45
2023-08-07T20:15:17.040Z,99715.54
2023-08-07T20:17:50.129Z,99712.77
2023-08-07T20:20:23.055Z,99710.50
2023-08-07T20:22:54.664Z,99708.16
2023-08-07T20:25:27.056Z,99704.40
2023-08-07T20:28:02.062Z,99704.77
2023-08-07T20:30:33.916Z,99708.83
2023-08-07T20:33:05.594Z,99712.68
2023-08-07T20:35:37.249Z,99715.20
2023-08-07T20:38:08.904Z,99708.52
2023-08-07T20:40:42.646Z,99711.28
2023-08-07T20:43:14.421Z,99712.33
2023-08-07T20:45:46.648Z,99712.52
2023-08-07T20:48:19.712Z,99710.55
2023-08-07T20:50:52.132Z,99709.58
2023-08-07T20:53:26.285Z,99712.84
2023-08-07T20:55:58.039Z,99715.19
2023-08-07T20:58:31.606Z,99714.02
2023-08-07T21:01:03.507Z,99711.29
2023-08-07T21:03:40.832Z,99710.52
2023-08-07T21:06:17.070Z,99711.13
2023-08-07T21:08:55.480Z,99709.76
2023-08-07T21:11:30.288Z,99705.80
2023-08-07T21:14:02.780Z,99711.68
2023-08-07T21:16:34.466Z,99713.58
2023-08-07T21:19:06.259Z,99715.94
2023-08-07T21:21:37.894Z,99718.70
2023-08-07T21:24:13.315Z,99711.60
2023-08-07T21:26:45.080Z,99705.17
2023-08-07T21:29:16.905Z,99699.66
2023-08-07T21:31:53.171Z,99698.64
2023-08-07T21:34:26.510Z,99696.19
2023-08-07T21:37:00.981Z,99693.40
2023-08-07T21:39:34.296Z,99694.37
2023-08-07T21:42:08.880Z,99699.02
2023-08-07T21:44:41.742Z,99701.27
2023-08-07T21:47:13.757Z,99698.09
2023-08-07T21:49:45.264Z,99700.84
2023-08-07T21:52:28.738Z,99700.67
2023-08-07T21:55:00.252Z,99698.47
2023-08-07T21:57:31.731Z,99697.02
2023-08-07T22:00:04.723Z,99700.98
2023-08-07T22:02:36.307Z,99698.45
2023-08-07T22:05:09.343Z,99698.05
2023-08-07T22:07:41.261Z,99701.73
2023-08-07T22:10:14.422Z,99698.25
2023-08-07T22:12:46.943Z,99698.02
2023-08-07T22:15:18.762Z,99693.40
2023-08-07T22:17:50.394Z,99693.02
2023-08-07T22:20:22.889Z,99690.10
2023-08-07T22:22:54.433Z,99690.48
2023-08-07T22:25:26.290Z,99689.44
2023-08-07T22:27:57.815Z,99687.67
2023-08-07T22:30:29.499Z,99690.27
2023-08-07T22:33:03.416Z,99687.79
2023-08-07T22:35:38.770Z,99690.17
2023-08-07T22:38:10.281Z,99689.27
2023-08-07T22:40:43.024Z,99688.71
2023-08-07T22:43:15.379Z,99690.33
2023-08-07T22:45:50.012Z,99689.77
2023-08-07T22:48:21.599Z,99689.98
2023-08-07T22:50:53.580Z,99694.83
2023-08-07T22:53:25.077Z,99699.02
2023-08-07T22:55:57.027Z,99695.95
2023-08-07T22:58:30.756Z,99691.33
2023-08-07T23:01:04.820Z,99687.32
2023-08-07T23:03:36.518Z,99687.06
2023-08-07T23:06:11.600Z,99686.38
2023-08-07T23:08:43.184Z,99683.70
2023-08-07T23:11:14.657Z,99675.75
2023-08-07T23:13:47.958Z,99676.09
2023-08-07T23:16:21.062Z,99673.54
2023-08-07T23:18:52.730Z,99672.98
2023-08-07T23:21:34.795Z,99679.71
2023-08-07T23:24:15.567Z,99678.02
2023-08-07T23:26:47.125Z,99676.30
2023-08-07T23:29:18.777Z,99673.98
2023-08-07T23:31:52.666Z,99673.70
2023-08-07T23:34:24.850Z,99669.61
2023-08-07T23:36:56.341Z,99663.20
2023-08-07T23:39:27.958Z,99663.42
2023-08-07T23:42:01.343Z,99667.89
2023-08-07T23:44:33.248Z,99669.89
2023-08-07T23:47:05.973Z,99672.27
2023-08-07T23:49:37.904Z,99671.11
2023-08-07T23:52:10.055Z,99671.01
2023-08-07T23:54:41.573Z,99673.98
2023-08-07T23:57:13.071Z,99670.58
2023-08-07T23:59:44.580Z,99668.67
